ウルムチ の空港の天気 - METARとTAF

ウルムチ地窩堡国際空港 ( ZWWW / URC ) - 中国 新疆ウイグル自治区ウルムチ市
飛行場実況気象(Metar)
観測時間10/20 12:00 CST (10/20 04:00 UTC)
風向・風速北 2m/s
視程10km以上
天気現象
なし
気温9℃
湿度53%
気圧1020hPa
METARZWWW 200400Z 36002MPS 310V040 CAVOK 09/00 Q1020 NOSIG
過去の天気等 Google飛行場航空写真 Wunderground天気予報

過去48時間のMETAR

飛行場予報(TAF)
発表時間: 10/20 05:04 CST (10/19 21:04 UTC)
予報対象時間: 20日8時 CST ~ 21日8時 CST
風向・風速南 4m/s
視程10km以上
なし
20日10時 CST ~ 20日11時 CST に徐々に
風向・風速北 4m/s
20日21時 CST ~ 20日22時 CST に徐々に
風向・風速南 4m/s
TAF ZWWW 192104Z 2000/2024 18004MPS CAVOK TX15/2009Z TN05/2000Z
BECMG 2002/2003 36004MPS
BECMG 2013/2014 18004MPS